sensor_id;sensor_type;location;lat;lon;timestamp;pressure;altitude;pressure_sealevel;temperature;humidity
72086;BME280;64750;52.134;5.424;2022-11-15T00:00:52;101008.44;;;9.10;72.00
72086;BME280;64750;52.134;5.424;2022-11-15T00:03:26;101011.06;;;9.10;71.68
72086;BME280;64750;52.134;5.424;2022-11-15T00:05:53;101004.94;;;9.10;72.08
72086;BME280;64750;52.134;5.424;2022-11-15T00:08:20;101012.91;;;9.08;72.02
72086;BME280;64750;52.134;5.424;2022-11-15T00:10:56;101020.69;;;9.10;72.41
72086;BME280;64750;52.134;5.424;2022-11-15T00:13:23;101017.97;;;9.11;72.59
72086;BME280;64750;52.134;5.424;2022-11-15T00:15:49;101017.03;;;9.12;72.25
72086;BME280;64750;52.134;5.424;2022-11-15T00:18:16;101015.28;;;9.13;72.58
72086;BME280;64750;52.134;5.424;2022-11-15T00:20:43;101007.47;;;9.11;72.35
72086;BME280;64750;52.134;5.424;2022-11-15T00:23:09;101002.22;;;9.11;72.75
72086;BME280;64750;52.134;5.424;2022-11-15T00:25:35;101002.22;;;9.11;72.70
72086;BME280;64750;52.134;5.424;2022-11-15T00:28:02;100997.16;;;9.08;72.66
72086;BME280;64750;52.134;5.424;2022-11-15T00:30:28;100997.06;;;9.10;72.84
72086;BME280;64750;52.134;5.424;2022-11-15T00:32:55;100997.00;;;9.11;72.73
72086;BME280;64750;52.134;5.424;2022-11-15T00:35:21;100993.44;;;9.12;72.70
72086;BME280;64750;52.134;5.424;2022-11-15T00:37:48;100997.94;;;9.10;73.37
72086;BME280;64750;52.134;5.424;2022-11-15T00:40:14;101000.56;;;9.10;73.05
72086;BME280;64750;52.134;5.424;2022-11-15T00:42:41;101000.47;;;9.12;73.15
72086;BME280;64750;52.134;5.424;2022-11-15T00:45:08;101011.06;;;9.10;73.22
72086;BME280;64750;52.134;5.424;2022-11-15T00:47:35;100998.84;;;9.09;73.15
72086;BME280;64750;52.134;5.424;2022-11-15T00:50:01;101003.31;;;9.07;73.82
72086;BME280;64750;52.134;5.424;2022-11-15T00:52:28;101004.09;;;9.09;73.59
72086;BME280;64750;52.134;5.424;2022-11-15T00:54:54;100997.84;;;9.12;73.43
72086;BME280;64750;52.134;5.424;2022-11-15T00:57:20;100993.44;;;9.12;73.29
72086;BME280;64750;52.134;5.424;2022-11-15T00:59:46;100988.19;;;9.12;73.89
72086;BME280;64750;52.134;5.424;2022-11-15T01:02:13;100982.88;;;9.14;73.56
72086;BME280;64750;52.134;5.424;2022-11-15T01:04:39;100976.78;;;9.13;73.50
72086;BME280;64750;52.134;5.424;2022-11-15T01:07:06;100972.47;;;9.12;73.78
72086;BME280;64750;52.134;5.424;2022-11-15T01:09:32;100962.69;;;9.16;73.58
72086;BME280;64750;52.134;5.424;2022-11-15T01:11:58;100969.72;;;9.15;73.99
72086;BME280;64750;52.134;5.424;2022-11-15T01:14:25;100973.16;;;9.16;73.92
72086;BME280;64750;52.134;5.424;2022-11-15T01:16:51;100973.94;;;9.18;73.62
72086;BME280;64750;52.134;5.424;2022-11-15T01:19:17;100967.84;;;9.17;73.84
72086;BME280;64750;52.134;5.424;2022-11-15T01:21:44;100965.22;;;9.17;74.09
72086;BME280;64750;52.134;5.424;2022-11-15T01:24:12;100966.06;;;9.18;74.02
72086;BME280;64750;52.134;5.424;2022-11-15T01:26:39;100954.72;;;9.17;74.01
72086;BME280;64750;52.134;5.424;2022-11-15T01:29:05;100965.38;;;9.14;74.64
72086;BME280;64750;52.134;5.424;2022-11-15T01:31:32;100963.50;;;9.16;74.35
72086;BME280;64750;52.134;5.424;2022-11-15T01:33:58;100958.25;;;9.16;74.70
72086;BME280;64750;52.134;5.424;2022-11-15T01:36:24;100949.47;;;9.17;74.37
72086;BME280;64750;52.134;5.424;2022-11-15T01:38:54;100948.47;;;9.20;74.39
72086;BME280;64750;52.134;5.424;2022-11-15T01:41:24;100942.53;;;9.16;74.55
72086;BME280;64750;52.134;5.424;2022-11-15T01:43:56;100950.41;;;9.16;74.84
72086;BME280;64750;52.134;5.424;2022-11-15T01:46:27;100947.03;;;9.14;74.95
72086;BME280;64750;52.134;5.424;2022-11-15T01:48:57;100939.91;;;9.16;74.82
72086;BME280;64750;52.134;5.424;2022-11-15T01:51:29;100939.84;;;9.18;74.88
72086;BME280;64750;52.134;5.424;2022-11-15T01:53:59;100935.34;;;9.20;74.64
72086;BME280;64750;52.134;5.424;2022-11-15T01:56:30;100946.63;;;9.22;74.69
72086;BME280;64750;52.134;5.424;2022-11-15T01:59:01;100940.50;;;9.22;75.13
72086;BME280;64750;52.134;5.424;2022-11-15T02:01:30;100927.34;;;9.23;75.03
72086;BME280;64750;52.134;5.424;2022-11-15T02:04:02;100926.47;;;9.23;74.75
72086;BME280;64750;52.134;5.424;2022-11-15T02:06:32;100928.34;;;9.21;75.13
72086;BME280;64750;52.134;5.424;2022-11-15T02:09:00;100934.44;;;9.21;75.30
72086;BME280;64750;52.134;5.424;2022-11-15T02:11:30;100929.09;;;9.23;74.91
72086;BME280;64750;52.134;5.424;2022-11-15T02:13:58;100929.03;;;9.24;75.01
72086;BME280;64750;52.134;5.424;2022-11-15T02:25:03;100913.38;;;9.23;75.83
72086;BME280;64750;52.134;5.424;2022-11-15T02:30:29;100898.22;;;9.28;75.31
72086;BME280;64750;52.134;5.424;2022-11-15T02:36:18;100894.00;;;9.25;75.74
72086;BME280;64750;52.134;5.424;2022-11-15T02:39:07;100888.59;;;9.28;75.41
72086;BME280;64750;52.134;5.424;2022-11-15T02:41:53;100878.13;;;9.28;75.95
72086;BME280;64750;52.134;5.424;2022-11-15T02:44:28;100878.03;;;9.30;75.40
72086;BME280;64750;52.134;5.424;2022-11-15T02:47:08;100875.41;;;9.30;76.12
72086;BME280;64750;52.134;5.424;2022-11-15T02:49:50;100864.91;;;9.30;75.97
72086;BME280;64750;52.134;5.424;2022-11-15T02:52:23;100873.56;;;9.32;76.15
72086;BME280;64750;52.134;5.424;2022-11-15T02:54:56;100870.94;;;9.32;75.98
72086;BME280;64750;52.134;5.424;2022-11-15T02:57:48;100864.66;;;9.34;76.08
72086;BME280;64750;52.134;5.424;2022-11-15T03:00:21;100860.16;;;9.36;75.92
72086;BME280;64750;52.134;5.424;2022-11-15T03:08:30;100842.66;;;9.37;75.70
72086;BME280;64750;52.134;5.424;2022-11-15T03:11:03;100844.28;;;9.40;75.46
72086;BME280;64750;52.134;5.424;2022-11-15T03:14:28;100846.81;;;9.41;75.68
72086;BME280;64750;52.134;5.424;2022-11-15T03:17:05;100850.34;;;9.40;75.85
72086;BME280;64750;52.134;5.424;2022-11-15T03:19:50;100854.09;;;9.36;76.13
72086;BME280;64750;52.134;5.424;2022-11-15T03:22:22;100855.69;;;9.39;76.08
72086;BME280;64750;52.134;5.424;2022-11-15T03:24:54;100853.75;;;9.42;76.09
72086;BME280;64750;52.134;5.424;2022-11-15T03:27:26;100855.41;;;9.43;75.97
72086;BME280;64750;52.134;5.424;2022-11-15T03:30:01;100858.03;;;9.43;76.30
72086;BME280;64750;52.134;5.424;2022-11-15T03:32:30;100858.81;;;9.45;76.33
72086;BME280;64750;52.134;5.424;2022-11-15T03:35:23;100871.00;;;9.46;76.23
72086;BME280;64750;52.134;5.424;2022-11-15T03:38:14;100856.97;;;9.47;77.04
72086;BME280;64750;52.134;5.424;2022-11-15T03:41:04;100862.22;;;9.47;76.81
72086;BME280;64750;52.134;5.424;2022-11-15T03:46:27;100852.56;;;9.48;76.81
72086;BME280;64750;52.134;5.424;2022-11-15T03:49:04;100862.22;;;9.47;76.76
72086;BME280;64750;52.134;5.424;2022-11-15T03:51:32;100859.50;;;9.49;76.96
72086;BME280;64750;52.134;5.424;2022-11-15T03:54:08;100864.75;;;9.49;77.20
72086;BME280;64750;52.134;5.424;2022-11-15T03:56:34;100865.50;;;9.51;77.30
72086;BME280;64750;52.134;5.424;2022-11-15T03:59:01;100851.34;;;9.53;77.20
72086;BME280;64750;52.134;5.424;2022-11-15T04:01:27;100853.06;;;9.55;77.15
72086;BME280;64750;52.134;5.424;2022-11-15T04:03:57;100845.28;;;9.53;77.52
72086;BME280;64750;52.134;5.424;2022-11-15T04:06:23;100849.59;;;9.54;77.37
72086;BME280;64750;52.134;5.424;2022-11-15T04:08:50;100845.09;;;9.56;77.53
72086;BME280;64750;52.134;5.424;2022-11-15T04:11:16;100845.09;;;9.56;77.81
72086;BME280;64750;52.134;5.424;2022-11-15T04:13:43;100845.03;;;9.58;77.49
72086;BME280;64750;52.134;5.424;2022-11-15T04:16:11;100845.78;;;9.60;77.50
72086;BME280;64750;52.134;5.424;2022-11-15T04:18:38;100847.47;;;9.61;77.96
72086;BME280;64750;52.134;5.424;2022-11-15T04:21:04;100836.88;;;9.62;77.59
72086;BME280;64750;52.134;5.424;2022-11-15T04:23:50;100846.44;;;9.63;77.89
72086;BME280;64750;52.134;5.424;2022-11-15T04:26:35;100834.94;;;9.66;78.04
72086;BME280;64750;52.134;5.424;2022-11-15T04:29:02;100839.25;;;9.67;78.05
72086;BME280;64750;52.134;5.424;2022-11-15T04:31:47;100835.72;;;9.68;78.43
72086;BME280;64750;52.134;5.424;2022-11-15T04:34:13;100829.34;;;9.72;78.39
72086;BME280;64750;52.134;5.424;2022-11-15T04:36:40;100837.03;;;9.75;78.95
72086;BME280;64750;52.134;5.424;2022-11-15T04:39:27;100834.34;;;9.77;78.42
72086;BME280;64750;52.134;5.424;2022-11-15T04:41:53;100842.28;;;9.75;78.22
72086;BME280;64750;52.134;5.424;2022-11-15T04:44:20;100832.47;;;9.79;78.93
72086;BME280;64750;52.134;5.424;2022-11-15T04:46:46;100827.88;;;9.82;78.93
72086;BME280;64750;52.134;5.424;2022-11-15T04:49:13;100829.38;;;9.87;79.13
72086;BME280;64750;52.134;5.424;2022-11-15T04:51:39;100820.41;;;9.91;79.32
72086;BME280;64750;52.134;5.424;2022-11-15T04:54:06;100829.88;;;9.93;79.85
72086;BME280;64750;52.134;5.424;2022-11-15T04:56:32;100826.22;;;9.96;79.58
72086;BME280;64750;52.134;5.424;2022-11-15T04:58:59;100828.13;;;9.94;79.54
72086;BME280;64750;52.134;5.424;2022-11-15T05:01:25;100826.22;;;9.96;79.45
72086;BME280;64750;52.134;5.424;2022-11-15T05:03:54;100827.75;;;10.00;79.62
72086;BME280;64750;52.134;5.424;2022-11-15T05:06:42;100823.94;;;10.06;79.54
72086;BME280;64750;52.134;5.424;2022-11-15T05:09:09;100825.72;;;10.05;79.34
72086;BME280;64750;52.134;5.424;2022-11-15T05:11:35;100835.00;;;10.11;79.52
72086;BME280;64750;52.134;5.424;2022-11-15T05:14:02;100835.84;;;10.11;79.10
72086;BME280;64750;52.134;5.424;2022-11-15T05:16:28;100830.44;;;10.14;79.56
72086;BME280;64750;52.134;5.424;2022-11-15T05:18:55;100836.34;;;10.18;79.64
72086;BME280;64750;52.134;5.424;2022-11-15T05:21:21;100840.47;;;10.22;79.48
72086;BME280;64750;52.134;5.424;2022-11-15T05:23:48;100839.66;;;10.22;79.55
72086;BME280;64750;52.134;5.424;2022-11-15T05:26:18;100843.88;;;10.24;79.63
72086;BME280;64750;52.134;5.424;2022-11-15T05:28:51;100841.06;;;10.27;79.16
72086;BME280;64750;52.134;5.424;2022-11-15T05:31:18;100841.81;;;10.29;79.58
72086;BME280;64750;52.134;5.424;2022-11-15T05:33:49;100852.03;;;10.34;78.96
72086;BME280;64750;52.134;5.424;2022-11-15T05:36:25;100838.78;;;10.37;79.28
72086;BME280;64750;52.134;5.424;2022-11-15T05:38:53;100841.22;;;10.40;79.40
72086;BME280;64750;52.134;5.424;2022-11-15T05:41:24;100848.16;;;10.41;79.11
72086;BME280;64750;52.134;5.424;2022-11-15T05:43:53;100844.59;;;10.42;79.19
72086;BME280;64750;52.134;5.424;2022-11-15T05:46:20;100844.50;;;10.44;79.20
72086;BME280;64750;52.134;5.424;2022-11-15T05:48:52;100853.22;;;10.44;78.92
72086;BME280;64750;52.134;5.424;2022-11-15T05:51:21;100846.09;;;10.46;78.96
72086;BME280;64750;52.134;5.424;2022-11-15T05:53:51;100855.59;;;10.49;78.86
72086;BME280;64750;52.134;5.424;2022-11-15T05:56:25;100852.84;;;10.50;78.83
72086;BME280;64750;52.134;5.424;2022-11-15T05:58:53;100858.13;;;10.50;78.48
72086;BME280;64750;52.134;5.424;2022-11-15T06:01:25;100857.09;;;10.53;79.01
72086;BME280;64750;52.134;5.424;2022-11-15T06:03:53;100858.88;;;10.53;78.92
72086;BME280;64750;52.134;5.424;2022-11-15T06:06:19;100851.72;;;10.55;78.96
72086;BME280;64750;52.134;5.424;2022-11-15T06:08:48;100856.16;;;10.54;78.88
72086;BME280;64750;52.134;5.424;2022-11-15T06:11:14;100862.34;;;10.53;78.73
72086;BME280;64750;52.134;5.424;2022-11-15T06:13:41;100867.69;;;10.52;78.29
72086;BME280;64750;52.134;5.424;2022-11-15T06:16:07;100863.19;;;10.54;78.78
72086;BME280;64750;52.134;5.424;2022-11-15T06:18:34;100863.78;;;10.59;78.85
72086;BME280;64750;52.134;5.424;2022-11-15T06:21:02;100855.69;;;10.62;78.95
72086;BME280;64750;52.134;5.424;2022-11-15T06:23:32;100867.81;;;10.64;79.04
72086;BME280;64750;52.134;5.424;2022-11-15T06:26:00;100872.13;;;10.65;79.04
72086;BME280;64750;52.134;5.424;2022-11-15T06:28:31;100873.91;;;10.65;79.30
72086;BME280;64750;52.134;5.424;2022-11-15T06:31:10;100874.75;;;10.65;78.96
72086;BME280;64750;52.134;5.424;2022-11-15T06:33:49;100880.69;;;10.69;79.06
72086;BME280;64750;52.134;5.424;2022-11-15T06:36:19;100873.81;;;10.66;79.02
72086;BME280;64750;52.134;5.424;2022-11-15T06:38:52;100879.09;;;10.66;78.72
72086;BME280;64750;52.134;5.424;2022-11-15T06:41:19;100877.50;;;10.64;78.87
72086;BME280;64750;52.134;5.424;2022-11-15T06:43:47;100877.38;;;10.65;79.08
72086;BME280;64750;52.134;5.424;2022-11-15T06:46:13;100863.22;;;10.68;79.06
72086;BME280;64750;52.134;5.424;2022-11-15T06:48:40;100865.66;;;10.71;79.01
72086;BME280;64750;52.134;5.424;2022-11-15T06:51:15;100872.81;;;10.69;79.00
72086;BME280;64750;52.134;5.424;2022-11-15T06:53:41;100877.03;;;10.72;79.02
72086;BME280;64750;52.134;5.424;2022-11-15T06:56:08;100873.38;;;10.74;79.13
72086;BME280;64750;52.134;5.424;2022-11-15T06:58:35;100890.75;;;10.77;78.87
72086;BME280;64750;52.134;5.424;2022-11-15T07:01:07;100889.88;;;10.76;78.82
72086;BME280;64750;52.134;5.424;2022-11-15T07:03:36;100895.91;;;10.78;79.11
72086;BME280;64750;52.134;5.424;2022-11-15T07:06:03;100901.06;;;10.80;78.73
72086;BME280;64750;52.134;5.424;2022-11-15T07:08:36;100897.75;;;10.76;78.98
72086;BME280;64750;52.134;5.424;2022-11-15T07:11:05;100895.03;;;10.78;78.77
72086;BME280;64750;52.134;5.424;2022-11-15T07:13:35;100894.09;;;10.79;78.97
72086;BME280;64750;52.134;5.424;2022-11-15T07:16:08;100903.69;;;10.80;78.94
72086;BME280;64750;52.134;5.424;2022-11-15T07:18:42;100899.34;;;10.79;79.21
72086;BME280;64750;52.134;5.424;2022-11-15T07:21:10;100903.69;;;10.80;78.84
72086;BME280;64750;52.134;5.424;2022-11-15T07:23:39;100907.16;;;10.80;79.00
72086;BME280;64750;52.134;5.424;2022-11-15T07:26:07;100902.66;;;10.82;78.72
72086;BME280;64750;52.134;5.424;2022-11-15T07:28:34;100899.81;;;10.86;78.84
72086;BME280;64750;52.134;5.424;2022-11-15T07:31:08;100901.53;;;10.87;78.88
72086;BME280;64750;52.134;5.424;2022-11-15T07:33:38;100894.41;;;10.89;78.59
72086;BME280;64750;52.134;5.424;2022-11-15T07:36:09;100897.97;;;10.88;78.77
72086;BME280;64750;52.134;5.424;2022-11-15T07:38:36;100907.53;;;10.89;78.80
72086;BME280;64750;52.134;5.424;2022-11-15T07:41:11;100902.19;;;10.90;78.73
72086;BME280;64750;52.134;5.424;2022-11-15T07:43:37;100896.16;;;10.88;78.96
72086;BME280;64750;52.134;5.424;2022-11-15T07:46:06;100898.72;;;10.90;78.60
72086;BME280;64750;52.134;5.424;2022-11-15T07:48:39;100899.66;;;10.89;79.20
72086;BME280;64750;52.134;5.424;2022-11-15T07:51:12;100888.28;;;10.88;79.09
72086;BME280;64750;52.134;5.424;2022-11-15T07:53:47;100888.22;;;10.90;79.25
72086;BME280;64750;52.134;5.424;2022-11-15T07:56:13;100896.09;;;10.90;78.99
72086;BME280;64750;52.134;5.424;2022-11-15T07:58:40;100887.34;;;10.89;79.11
72086;BME280;64750;52.134;5.424;2022-11-15T08:01:09;100888.94;;;10.92;79.30
72086;BME280;64750;52.134;5.424;2022-11-15T08:03:36;100888.94;;;10.92;79.00
72086;BME280;64750;52.134;5.424;2022-11-15T08:06:05;100885.38;;;10.93;78.93
72086;BME280;64750;52.134;5.424;2022-11-15T08:08:32;100889.81;;;10.92;79.11
72086;BME280;64750;52.134;5.424;2022-11-15T08:10:59;100887.06;;;10.94;79.19
72086;BME280;64750;52.134;5.424;2022-11-15T08:13:26;100887.06;;;10.94;79.07
72086;BME280;64750;52.134;5.424;2022-11-15T08:15:59;100881.72;;;10.95;79.29
72086;BME280;64750;52.134;5.424;2022-11-15T08:18:26;100882.56;;;10.96;79.51
72086;BME280;64750;52.134;5.424;2022-11-15T08:20:52;100879.91;;;10.96;79.24
72086;BME280;64750;52.134;5.424;2022-11-15T08:23:18;100886.88;;;10.97;79.21
72086;BME280;64750;52.134;5.424;2022-11-15T08:25:46;100883.22;;;10.99;79.40
72086;BME280;64750;52.134;5.424;2022-11-15T08:28:16;100885.78;;;11.01;79.61
72086;BME280;64750;52.134;5.424;2022-11-15T08:30:44;100884.06;;;11.00;79.60
72086;BME280;64750;52.134;5.424;2022-11-15T08:33:15;100877.88;;;11.01;79.93
72086;BME280;64750;52.134;5.424;2022-11-15T08:35:42;100874.28;;;11.02;80.03
72086;BME280;64750;52.134;5.424;2022-11-15T08:38:20;100877.69;;;11.04;80.02
72086;BME280;64750;52.134;5.424;2022-11-15T08:40:51;100875.81;;;11.06;79.60
72086;BME280;64750;52.134;5.424;2022-11-15T08:43:19;100872.22;;;11.07;79.85
72086;BME280;64750;52.134;5.424;2022-11-15T08:45:45;100860.03;;;11.06;79.78
72086;BME280;64750;52.134;5.424;2022-11-15T08:48:12;100851.19;;;11.07;79.96
72086;BME280;64750;52.134;5.424;2022-11-15T08:50:38;100851.94;;;11.09;79.82
72086;BME280;64750;52.134;5.424;2022-11-15T08:53:12;100857.97;;;11.11;79.72
72086;BME280;64750;52.134;5.424;2022-11-15T08:55:44;100852.69;;;11.11;79.84
72086;BME280;64750;52.134;5.424;2022-11-15T08:58:10;100854.38;;;11.12;80.25
72086;BME280;64750;52.134;5.424;2022-11-15T09:00:37;100856.06;;;11.13;80.42
72086;BME280;64750;52.134;5.424;2022-11-15T09:03:07;100852.50;;;11.14;80.26
72086;BME280;64750;52.134;5.424;2022-11-15T09:05:36;100847.13;;;11.16;80.46
72086;BME280;64750;52.134;5.424;2022-11-15T09:08:03;100852.50;;;11.14;80.49
72086;BME280;64750;52.134;5.424;2022-11-15T09:10:55;100848.94;;;11.15;80.26
72086;BME280;64750;52.134;5.424;2022-11-15T09:13:22;100857.56;;;11.18;80.44
72086;BME280;64750;52.134;5.424;2022-11-15T09:15:51;100845.16;;;11.20;80.49
72086;BME280;64750;52.134;5.424;2022-11-15T09:18:20;100849.38;;;11.22;80.59
72086;BME280;64750;52.134;5.424;2022-11-15T09:20:50;100836.13;;;11.24;80.99
72086;BME280;64750;52.134;5.424;2022-11-15T09:23:17;100839.31;;;11.29;80.70
72086;BME280;64750;52.134;5.424;2022-11-15T09:25:46;100837.63;;;11.28;80.80
72086;BME280;64750;52.134;5.424;2022-11-15T09:28:16;100831.53;;;11.27;80.93
72086;BME280;64750;52.134;5.424;2022-11-15T09:30:49;100829.66;;;11.29;81.11
72086;BME280;64750;52.134;5.424;2022-11-15T09:33:16;100837.44;;;11.31;80.96
72086;BME280;64750;52.134;5.424;2022-11-15T09:35:46;100841.66;;;11.33;81.20
72086;BME280;64750;52.134;5.424;2022-11-15T09:38:13;100840.72;;;11.35;80.85
72086;BME280;64750;52.134;5.424;2022-11-15T09:40:39;100832.84;;;11.35;80.67
72086;BME280;64750;52.134;5.424;2022-11-15T09:43:36;100831.13;;;11.33;80.70
72086;BME280;64750;52.134;5.424;2022-11-15T09:49:21;100830.09;;;11.36;80.64
72086;BME280;64750;52.134;5.424;2022-11-15T09:51:51;100828.31;;;11.37;80.47
72086;BME280;64750;52.134;5.424;2022-11-15T09:54:36;100822.75;;;11.41;80.47
72086;BME280;64750;52.134;5.424;2022-11-15T09:57:50;100822.66;;;11.43;80.48
72086;BME280;64750;52.134;5.424;2022-11-15T10:00:28;100820.84;;;11.43;80.43
72086;BME280;64750;52.134;5.424;2022-11-15T10:03:27;100829.50;;;11.45;80.44
72086;BME280;64750;52.134;5.424;2022-11-15T10:05:59;100823.19;;;11.48;80.47
72086;BME280;64750;52.134;5.424;2022-11-15T10:08:53;100814.38;;;11.49;80.31
72086;BME280;64750;52.134;5.424;2022-11-15T10:11:25;100815.31;;;11.48;80.38
72086;BME280;64750;52.134;5.424;2022-11-15T10:14:20;100819.63;;;11.49;80.41
72086;BME280;64750;52.134;5.424;2022-11-15T10:22:39;100802.59;;;11.55;80.07
72086;BME280;64750;52.134;5.424;2022-11-15T10:27:36;100813.13;;;11.55;79.84
72086;BME280;64750;52.134;5.424;2022-11-15T10:30:20;100803.44;;;11.55;79.45
72086;BME280;64750;52.134;5.424;2022-11-15T10:32:50;100802.50;;;11.56;79.17
72086;BME280;64750;52.134;5.424;2022-11-15T10:35:29;100797.97;;;11.58;79.15
72086;BME280;64750;52.134;5.424;2022-11-15T10:38:11;100801.34;;;11.60;79.05
72086;BME280;64750;52.134;5.424;2022-11-15T10:40:43;100795.22;;;11.60;79.26
72086;BME280;64750;52.134;5.424;2022-11-15T10:43:20;100783.75;;;11.61;79.08
72086;BME280;64750;52.134;5.424;2022-11-15T10:45:47;100774.00;;;11.63;78.96
72086;BME280;64750;52.134;5.424;2022-11-15T10:50:47;100769.38;;;11.67;78.64
72086;BME280;64750;52.134;5.424;2022-11-15T10:55:54;100763.78;;;11.71;78.57
72086;BME280;64750;52.134;5.424;2022-11-15T10:58:42;100755.78;;;11.73;78.58
72086;BME280;64750;52.134;5.424;2022-11-15T11:01:29;100761.91;;;11.73;78.49
72086;BME280;64750;52.134;5.424;2022-11-15T11:04:20;100753.78;;;11.76;78.13
72086;BME280;64750;52.134;5.424;2022-11-15T11:06:51;100752.75;;;11.79;78.03
72086;BME280;64750;52.134;5.424;2022-11-15T11:09:38;100744.53;;;11.84;77.95
72086;BME280;64750;52.134;5.424;2022-11-15T11:12:11;100752.22;;;11.87;77.93
72086;BME280;64750;52.134;5.424;2022-11-15T11:14:40;100740.44;;;11.92;77.70
72086;BME280;64750;52.134;5.424;2022-11-15T11:29:01;100722.25;;;12.15;77.10
72086;BME280;64750;52.134;5.424;2022-11-15T11:37:11;100735.13;;;12.20;76.63
72086;BME280;64750;52.134;5.424;2022-11-15T11:45:25;100724.03;;;12.27;76.52
72086;BME280;64750;52.134;5.424;2022-11-15T11:48:11;100712.44;;;12.30;76.27
72086;BME280;64750;52.134;5.424;2022-11-15T11:50:41;100721.00;;;12.34;76.08
72086;BME280;64750;52.134;5.424;2022-11-15T11:53:25;100709.16;;;12.39;76.01
72086;BME280;64750;52.134;5.424;2022-11-15T11:55:57;100707.91;;;12.45;75.76
72086;BME280;64750;52.134;5.424;2022-11-15T11:58:34;100698.00;;;12.49;75.70
72086;BME280;64750;52.134;5.424;2022-11-15T12:01:36;100690.59;;;12.54;75.49
72086;BME280;64750;52.134;5.424;2022-11-15T12:04:29;100678.88;;;12.58;75.44
72086;BME280;64750;52.134;5.424;2022-11-15T12:07:02;100666.22;;;12.63;75.39
72086;BME280;64750;52.134;5.424;2022-11-15T12:09:55;100672.19;;;12.65;75.37
72086;BME280;64750;52.134;5.424;2022-11-15T12:12:30;100674.63;;;12.68;75.04
72086;BME280;64750;52.134;5.424;2022-11-15T12:17:41;100658.59;;;12.71;74.75
72086;BME280;64750;52.134;5.424;2022-11-15T12:20:39;100652.34;;;12.72;74.56
72086;BME280;64750;52.134;5.424;2022-11-15T12:23:24;100648.78;;;12.73;74.23
72086;BME280;64750;52.134;5.424;2022-11-15T12:26:26;100641.56;;;12.75;73.93
72086;BME280;64750;52.134;5.424;2022-11-15T12:28:56;100637.16;;;12.76;73.53
72086;BME280;64750;52.134;5.424;2022-11-15T12:31:41;100628.19;;;12.78;73.48
72086;BME280;64750;52.134;5.424;2022-11-15T12:34:36;100623.75;;;12.79;73.57
72086;BME280;64750;52.134;5.424;2022-11-15T12:40:28;100620.91;;;12.82;73.30
72086;BME280;64750;52.134;5.424;2022-11-15T12:45:47;100598.72;;;12.85;72.38
72086;BME280;64750;52.134;5.424;2022-11-15T12:50:56;100602.06;;;12.87;71.34
72086;BME280;64750;52.134;5.424;2022-11-15T13:07:04;100567.69;;;12.88;70.50
72086;BME280;64750;52.134;5.424;2022-11-15T13:12:01;100556.28;;;12.88;70.70
72086;BME280;64750;52.134;5.424;2022-11-15T13:14:42;100566.84;;;12.88;70.60
72086;BME280;64750;52.134;5.424;2022-11-15T13:28:39;100542.28;;;12.87;70.48
72086;BME280;64750;52.134;5.424;2022-11-15T13:31:27;100542.16;;;12.89;70.59
72086;BME280;64750;52.134;5.424;2022-11-15T13:33:57;100534.25;;;12.89;70.31
72086;BME280;64750;52.134;5.424;2022-11-15T13:36:27;100537.00;;;12.87;70.37
72086;BME280;64750;52.134;5.424;2022-11-15T13:38:59;100529.91;;;12.88;70.15
72086;BME280;64750;52.134;5.424;2022-11-15T13:41:34;100517.69;;;12.87;70.10
72086;BME280;64750;52.134;5.424;2022-11-15T13:44:02;100510.63;;;12.87;70.29
72086;BME280;64750;52.134;5.424;2022-11-15T13:46:32;100512.41;;;12.87;70.45
72086;BME280;64750;52.134;5.424;2022-11-15T13:49:09;100510.63;;;12.87;70.29
72086;BME280;64750;52.134;5.424;2022-11-15T13:51:51;100501.03;;;12.86;70.31
72086;BME280;64750;52.134;5.424;2022-11-15T13:57:02;100495.88;;;12.85;70.13
72086;BME280;64750;52.134;5.424;2022-11-15T13:59:35;100503.66;;;12.86;70.11
72086;BME280;64750;52.134;5.424;2022-11-15T14:02:11;100489.66;;;12.86;70.27
72086;BME280;64750;52.134;5.424;2022-11-15T14:04:49;100487.00;;;12.86;70.54
72086;BME280;64750;52.134;5.424;2022-11-15T14:07:27;100487.97;;;12.85;70.73
72086;BME280;64750;52.134;5.424;2022-11-15T14:10:17;100482.69;;;12.85;70.29
72086;BME280;64750;52.134;5.424;2022-11-15T14:12:51;100481.72;;;12.86;70.09
72086;BME280;64750;52.134;5.424;2022-11-15T14:15:38;100484.38;;;12.86;70.43
72086;BME280;64750;52.134;5.424;2022-11-15T14:18:05;100476.47;;;12.86;70.15
72086;BME280;64750;52.134;5.424;2022-11-15T14:20:35;100474.78;;;12.85;70.02
72086;BME280;64750;52.134;5.424;2022-11-15T14:23:27;100463.34;;;12.84;70.01
72086;BME280;64750;52.134;5.424;2022-11-15T14:25:56;100468.63;;;12.84;69.90
72086;BME280;64750;52.134;5.424;2022-11-15T14:30:59;100455.69;;;12.81;69.72
72086;BME280;64750;52.134;5.424;2022-11-15T14:33:38;100450.41;;;12.81;70.07
72086;BME280;64750;52.134;5.424;2022-11-15T14:36:25;100451.38;;;12.80;69.97
72086;BME280;64750;52.134;5.424;2022-11-15T14:38:52;100445.28;;;12.79;69.64
72086;BME280;64750;52.134;5.424;2022-11-15T14:41:23;100443.56;;;12.78;69.59
72086;BME280;64750;52.134;5.424;2022-11-15T14:43:50;100440.13;;;12.78;69.50
72086;BME280;64750;52.134;5.424;2022-11-15T14:46:17;100433.16;;;12.77;69.47
72086;BME280;64750;52.134;5.424;2022-11-15T14:48:50;100427.03;;;12.76;69.32
72086;BME280;64750;52.134;5.424;2022-11-15T14:51:17;100419.09;;;12.76;69.39
72086;BME280;64750;52.134;5.424;2022-11-15T14:53:48;100421.75;;;12.76;68.95
72086;BME280;64750;52.134;5.424;2022-11-15T14:56:16;100405.22;;;12.74;69.09
72086;BME280;64750;52.134;5.424;2022-11-15T14:58:43;100415.03;;;12.72;68.99
72086;BME280;64750;52.134;5.424;2022-11-15T15:01:21;100400.16;;;12.71;68.68
72086;BME280;64750;52.134;5.424;2022-11-15T15:03:50;100401.13;;;12.70;68.94
72086;BME280;64750;52.134;5.424;2022-11-15T15:06:18;100395.00;;;12.70;68.95